createdAt,value
2022-11-07T00:00:07.751Z,98610.78
2022-11-07T00:02:34.330Z,98596.13
2022-11-07T00:05:01.537Z,98611.88
2022-11-07T00:07:28.060Z,98616.31
2022-11-07T00:09:54.580Z,98613.25
2022-11-07T00:12:22.498Z,98612.16
2022-11-07T00:14:49.057Z,98604.34
2022-11-07T00:17:15.691Z,98617.25
2022-11-07T00:19:42.226Z,98625.72
2022-11-07T00:22:08.941Z,98628.75
2022-11-07T00:24:35.457Z,98635.44
2022-11-07T00:27:02.008Z,98625.72
2022-11-07T00:29:29.942Z,98647.41
2022-11-07T00:31:56.461Z,98647.41
2022-11-07T00:34:23.098Z,98651.25
2022-11-07T00:36:49.593Z,98643.44
2022-11-07T00:39:16.565Z,98649.31
2022-11-07T00:41:43.235Z,98650.91
2022-11-07T00:44:09.762Z,98656.03
2022-11-07T00:46:37.772Z,98666.88
2022-11-07T00:49:04.423Z,98661.59
2022-11-07T00:51:30.958Z,98671.19
2022-11-07T00:53:57.558Z,98675.00
2022-11-07T00:56:25.215Z,98675.50
2022-11-07T00:58:55.474Z,98680.75
2022-11-07T01:01:23.949Z,98672.63
2022-11-07T01:03:52.417Z,98681.84
2022-11-07T01:06:19.140Z,98668.13
2022-11-07T01:08:45.648Z,98668.13
2022-11-07T01:11:12.169Z,98674.81
2022-11-07T01:13:38.847Z,98663.84
2022-11-07T01:16:08.351Z,98661.13
2022-11-07T01:18:35.028Z,98656.81
2022-11-07T01:21:05.746Z,98663.84
2022-11-07T01:23:32.303Z,98667.47
2022-11-07T01:26:03.203Z,98660.00
2022-11-07T01:28:29.899Z,98661.25
2022-11-07T01:30:56.415Z,98663.84
2022-11-07T01:33:22.995Z,98665.56
2022-11-07T01:35:49.506Z,98683.09
2022-11-07T01:38:17.363Z,98674.81
2022-11-07T01:40:44.216Z,98674.03
2022-11-07T01:43:10.942Z,98675.59
2022-11-07T01:45:37.520Z,98676.09
2022-11-07T01:48:04.293Z,98684.69
2022-11-07T01:50:30.849Z,98685.19
2022-11-07T01:52:57.974Z,98687.09
2022-11-07T01:55:29.601Z,98687.09
2022-11-07T01:57:59.585Z,98679.28
2022-11-07T02:00:27.337Z,98680.22
2022-11-07T02:02:57.747Z,98682.13
2022-11-07T02:05:30.673Z,98685.66
2022-11-07T02:07:58.659Z,98686.28
2022-11-07T02:10:27.237Z,98692.19
2022-11-07T02:12:55.692Z,98693.13
2022-11-07T02:15:22.388Z,98685.78
2022-11-07T02:17:49.285Z,98691.53
2022-11-07T02:20:15.959Z,98687.22
2022-11-07T02:22:51.970Z,98689.81
2022-11-07T02:25:20.490Z,98683.38
2022-11-07T02:27:49.982Z,98687.53
2022-11-07T02:30:18.907Z,98685.59
2022-11-07T02:32:45.429Z,98673.59
2022-11-07T02:35:35.874Z,98686.06
2022-11-07T02:38:04.854Z,98682.69
2022-11-07T02:40:33.795Z,98682.69
2022-11-07T02:43:00.590Z,98678.06
2022-11-07T02:45:30.682Z,98666.88
2022-11-07T02:47:57.241Z,98668.00
2022-11-07T02:50:24.307Z,98676.16
2022-11-07T02:52:50.883Z,98661.97
2022-11-07T02:55:17.725Z,98665.66
2022-11-07T02:57:45.611Z,98661.06
2022-11-07T03:00:14.028Z,98668.63
2022-11-07T03:02:41.159Z,98671.19
2022-11-07T03:05:08.470Z,98669.91
2022-11-07T03:07:35.140Z,98673.56
2022-11-07T03:10:01.689Z,98677.88
2022-11-07T03:12:28.205Z,98683.75
2022-11-07T03:14:56.188Z,98677.19
2022-11-07T03:17:22.724Z,98674.50
2022-11-07T03:19:49.234Z,98684.22
2022-11-07T03:22:15.779Z,98675.59
2022-11-07T03:24:42.313Z,98686.47
2022-11-07T03:27:08.851Z,98679.94
2022-11-07T03:29:35.417Z,98680.91
2022-11-07T03:32:03.505Z,98692.72
2022-11-07T03:34:30.153Z,98698.03
2022-11-07T03:36:56.811Z,98687.13
2022-11-07T03:39:25.999Z,98695.41
2022-11-07T03:41:52.720Z,98705.81
2022-11-07T03:44:19.360Z,98697.31
2022-11-07T03:46:46.041Z,98695.75
2022-11-07T03:49:13.926Z,98701.19
2022-11-07T03:51:40.551Z,98703.53
2022-11-07T03:54:07.108Z,98702.41
2022-11-07T03:56:33.682Z,98702.41
2022-11-07T03:59:00.192Z,98709.91
2022-11-07T04:01:26.963Z,98711.50
2022-11-07T04:03:56.187Z,98712.63
2022-11-07T04:06:24.379Z,98719.19
2022-11-07T04:08:50.908Z,98721.56
2022-11-07T04:11:17.414Z,98714.88
2022-11-07T04:13:44.066Z,98713.75
2022-11-07T04:16:17.279Z,98711.34
2022-11-07T04:18:44.167Z,98713.59
2022-11-07T04:21:10.805Z,98717.78
2022-11-07T04:23:38.812Z,98719.22
2022-11-07T04:26:05.694Z,98712.19
2022-11-07T04:28:32.366Z,98715.19
2022-11-07T04:30:58.858Z,98712.78
2022-11-07T04:33:25.512Z,98718.41
2022-11-07T04:35:52.006Z,98715.19
2022-11-07T04:38:18.660Z,98720.28
2022-11-07T04:40:52.820Z,98705.13
2022-11-07T04:43:19.473Z,98710.09
2022-11-07T04:45:45.995Z,98710.88
2022-11-07T04:48:12.663Z,98705.59
2022-11-07T04:50:39.768Z,98714.50
2022-11-07T04:53:06.305Z,98712.44
2022-11-07T04:55:32.827Z,98708.59
2022-11-07T04:58:00.682Z,98708.94
2022-11-07T05:00:27.360Z,98714.16
2022-11-07T05:02:53.970Z,98705.00
2022-11-07T05:05:20.947Z,98705.81
2022-11-07T05:07:48.251Z,98705.31
2022-11-07T05:10:18.701Z,98705.16
2022-11-07T05:12:45.243Z,98698.94
2022-11-07T05:15:13.492Z,98706.22
2022-11-07T05:17:40.277Z,98698.94
2022-11-07T05:20:11.880Z,98720.06
2022-11-07T05:22:38.408Z,98716.00
2022-11-07T05:25:05.675Z,98722.56
2022-11-07T05:27:32.188Z,98704.94
2022-11-07T05:29:58.705Z,98709.41
2022-11-07T05:32:26.575Z,98714.56
2022-11-07T05:34:53.105Z,98718.22
2022-11-07T05:37:19.659Z,98707.69
2022-11-07T05:39:48.054Z,98708.06
2022-11-07T05:42:17.545Z,98714.28
2022-11-07T05:44:44.053Z,98712.81
2022-11-07T05:47:10.699Z,98704.97
2022-11-07T05:49:38.560Z,98710.75
2022-11-07T05:52:05.792Z,98716.56
2022-11-07T05:54:32.349Z,98701.06
2022-11-07T05:56:59.252Z,98706.50
2022-11-07T05:59:25.871Z,98698.78
2022-11-07T06:01:53.033Z,98704.63
2022-11-07T06:04:19.827Z,98710.19
2022-11-07T06:06:47.681Z,98705.88
2022-11-07T06:09:14.355Z,98709.88
2022-11-07T06:11:41.084Z,98720.91
2022-11-07T06:14:07.602Z,98722.84
2022-11-07T06:16:34.147Z,98712.13
2022-11-07T06:19:00.666Z,98709.91
2022-11-07T06:21:27.185Z,98713.25
2022-11-07T06:23:55.095Z,98714.22
2022-11-07T06:26:21.615Z,98714.56
2022-11-07T06:28:48.166Z,98721.78
2022-11-07T06:31:14.818Z,98728.66
2022-11-07T06:33:41.545Z,98736.31
2022-11-07T06:36:10.476Z,98742.69
2022-11-07T06:38:37.798Z,98743.66
2022-11-07T06:41:07.806Z,98749.19
2022-11-07T06:43:34.956Z,98751.91
2022-11-07T06:46:03.910Z,98751.75
2022-11-07T06:48:30.737Z,98759.50
2022-11-07T06:50:58.291Z,98762.81
2022-11-07T06:53:25.234Z,98763.94
2022-11-07T06:55:51.787Z,98760.44
2022-11-07T06:58:20.134Z,98764.34
2022-11-07T07:00:46.706Z,98757.47
2022-11-07T07:03:13.724Z,98776.44
2022-11-07T07:05:40.581Z,98766.47
2022-11-07T07:08:08.228Z,98771.44
2022-11-07T07:10:40.701Z,98761.34
2022-11-07T07:13:07.214Z,98759.13
2022-11-07T07:15:49.799Z,98762.31
2022-11-07T07:18:17.225Z,98771.66
2022-11-07T07:20:43.797Z,98765.09
2022-11-07T07:23:10.346Z,98773.34
2022-11-07T07:25:36.885Z,98772.38
2022-11-07T07:28:03.467Z,98770.25
2022-11-07T07:30:30.059Z,98765.38
2022-11-07T07:32:58.023Z,98764.53
2022-11-07T07:35:24.526Z,98764.97
2022-11-07T07:37:51.830Z,98774.88
2022-11-07T07:40:19.110Z,98773.50
2022-11-07T07:42:45.739Z,98774.56
2022-11-07T07:45:14.060Z,98774.50
2022-11-07T07:47:41.019Z,98772.84
2022-11-07T07:50:11.315Z,98774.22
2022-11-07T07:52:38.173Z,98778.28
2022-11-07T07:55:05.472Z,98781.38
2022-11-07T07:57:32.160Z,98783.53
2022-11-07T07:59:58.803Z,98785.47
2022-11-07T08:02:25.399Z,98784.34
2022-11-07T08:04:52.009Z,98777.75
2022-11-07T08:07:19.890Z,98786.72
2022-11-07T08:09:46.607Z,98785.59
2022-11-07T08:12:13.131Z,98790.38
2022-11-07T08:14:39.647Z,98798.19
2022-11-07T08:17:06.167Z,98792.06
2022-11-07T08:19:32.716Z,98796.53
2022-11-07T08:21:59.369Z,98790.97
2022-11-07T08:24:27.367Z,98795.72
2022-11-07T08:26:53.897Z,98799.13
2022-11-07T08:29:20.732Z,98785.84
2022-11-07T08:31:47.510Z,98790.13
2022-11-07T08:34:14.603Z,98793.19
2022-11-07T08:36:41.121Z,98798.19
2022-11-07T08:39:07.645Z,98800.34
2022-11-07T08:41:35.533Z,98807.94
2022-11-07T08:44:02.083Z,98790.56
2022-11-07T08:46:28.605Z,98800.63
2022-11-07T08:48:55.143Z,98797.91
2022-11-07T08:51:21.775Z,98795.34
2022-11-07T08:53:48.379Z,98786.75
2022-11-07T08:56:14.907Z,98801.78
2022-11-07T08:58:42.890Z,98795.53
2022-11-07T09:01:10.268Z,98782.84
2022-11-07T09:03:49.216Z,98787.22
2022-11-07T09:06:19.944Z,98805.69
2022-11-07T09:08:46.548Z,98793.91
2022-11-07T09:11:13.509Z,98806.94
2022-11-07T09:13:40.056Z,98796.66
2022-11-07T09:16:08.360Z,98796.72
2022-11-07T09:18:34.911Z,98793.06
2022-11-07T09:21:01.696Z,98803.22
2022-11-07T09:23:28.398Z,98797.41
2022-11-07T09:25:55.227Z,98794.31
2022-11-07T09:28:21.834Z,98802.66
2022-11-07T09:30:53.029Z,98804.44
2022-11-07T09:33:21.553Z,98824.66
2022-11-07T09:35:48.353Z,98816.13
2022-11-07T09:38:15.287Z,98817.69
2022-11-07T09:40:51.034Z,98814.75
2022-11-07T09:43:44.482Z,98819.41
2022-11-07T09:46:22.556Z,98822.84
2022-11-07T09:48:56.639Z,98832.66
2022-11-07T09:51:29.104Z,98820.50
2022-11-07T09:53:59.923Z,98836.75
2022-11-07T09:56:29.255Z,98825.16
2022-11-07T09:59:00.419Z,98825.81
2022-11-07T10:01:30.997Z,98816.69
2022-11-07T10:04:23.733Z,98819.41
2022-11-07T10:06:51.064Z,98829.88
2022-11-07T10:09:25.638Z,98836.03
2022-11-07T10:12:04.149Z,98810.78
2022-11-07T10:14:41.814Z,98826.84
2022-11-07T10:17:17.725Z,98823.47
2022-11-07T10:20:03.918Z,98831.72
2022-11-07T10:22:44.774Z,98813.19
2022-11-07T10:25:19.963Z,98806.09
2022-11-07T10:27:52.092Z,98824.16
2022-11-07T10:30:20.936Z,98822.81
2022-11-07T10:32:56.437Z,98823.38
2022-11-07T10:35:28.885Z,98818.31
2022-11-07T10:38:01.545Z,98823.44
2022-11-07T10:40:35.769Z,98811.50
2022-11-07T10:43:05.524Z,98818.50
2022-11-07T10:45:32.427Z,98820.66
2022-11-07T10:48:00.560Z,98830.38
2022-11-07T10:50:28.786Z,98829.88
2022-11-07T10:52:57.139Z,98828.25
2022-11-07T10:55:24.731Z,98824.28
2022-11-07T10:57:53.971Z,98818.84
2022-11-07T11:00:24.137Z,98833.03
2022-11-07T11:02:51.703Z,98828.69
2022-11-07T11:05:32.919Z,98846.81
2022-11-07T11:08:10.344Z,98843.03
2022-11-07T11:10:38.699Z,98849.28
2022-11-07T11:13:05.422Z,98849.78
2022-11-07T11:15:35.762Z,98857.00
2022-11-07T11:18:05.016Z,98844.41
2022-11-07T11:20:37.128Z,98858.88
2022-11-07T11:23:06.920Z,98843.28
2022-11-07T11:25:44.117Z,98833.38
2022-11-07T11:28:18.275Z,98850.69
2022-11-07T11:30:50.349Z,98834.78
2022-11-07T11:33:22.606Z,98839.03
2022-11-07T11:35:55.573Z,98841.06
2022-11-07T11:38:27.238Z,98845.00
2022-11-07T11:41:04.720Z,98838.94
2022-11-07T11:43:43.018Z,98838.16
2022-11-07T11:46:16.248Z,98838.00
2022-11-07T11:48:47.716Z,98837.22
2022-11-07T11:51:21.279Z,98823.53
2022-11-07T11:53:47.994Z,98833.84
2022-11-07T11:56:25.360Z,98844.28
2022-11-07T11:59:04.101Z,98840.72
2022-11-07T12:01:42.396Z,98849.09
2022-11-07T12:04:49.400Z,98835.59
2022-11-07T12:07:37.048Z,98832.00
2022-11-07T12:10:08.219Z,98826.94
2022-11-07T12:12:47.658Z,98836.91
2022-11-07T12:15:30.769Z,98823.34
2022-11-07T12:18:01.513Z,98830.81
2022-11-07T12:20:32.647Z,98842.09
2022-11-07T12:23:13.267Z,98808.88
2022-11-07T12:25:45.860Z,98826.88
2022-11-07T12:28:30.689Z,98812.59
2022-11-07T12:31:06.835Z,98809.31
2022-11-07T12:33:42.238Z,98806.59
2022-11-07T12:36:14.845Z,98808.81
2022-11-07T12:38:57.808Z,98808.69
2022-11-07T12:41:35.509Z,98807.06
2022-11-07T12:44:16.897Z,98806.81
2022-11-07T12:46:48.395Z,98807.63
2022-11-07T12:49:37.273Z,98805.63
2022-11-07T12:52:13.385Z,98808.69
2022-11-07T12:54:49.809Z,98811.09
2022-11-07T12:57:20.511Z,98811.34
2022-11-07T12:59:53.475Z,98812.13
2022-11-07T13:02:40.007Z,98819.63
2022-11-07T13:05:17.240Z,98817.16
2022-11-07T13:07:50.693Z,98813.63
2022-11-07T13:10:27.223Z,98819.44
2022-11-07T13:13:00.887Z,98824.91
2022-11-07T13:15:27.721Z,98823.78
2022-11-07T13:17:54.328Z,98816.72
2022-11-07T13:20:29.554Z,98824.63
2022-11-07T13:22:57.911Z,98821.03
2022-11-07T13:25:30.976Z,98819.31
2022-11-07T13:28:06.748Z,98823.19
2022-11-07T13:30:36.166Z,98816.88
2022-11-07T13:33:04.163Z,98813.34
2022-11-07T13:35:32.122Z,98819.94
2022-11-07T13:38:05.899Z,98826.53
2022-11-07T13:40:39.081Z,98824.59
2022-11-07T13:43:14.109Z,98818.69
2022-11-07T13:45:45.867Z,98819.84
2022-11-07T13:48:17.708Z,98826.09
2022-11-07T13:50:49.265Z,98820.38
2022-11-07T13:53:21.852Z,98827.09
2022-11-07T13:55:55.714Z,98811.06
2022-11-07T13:58:22.904Z,98812.72
2022-11-07T14:00:49.578Z,98815.91
2022-11-07T14:03:24.430Z,98817.94
2022-11-07T14:05:51.790Z,98815.91
2022-11-07T14:08:25.379Z,98816.97
2022-11-07T14:10:54.103Z,98815.47
2022-11-07T14:13:25.130Z,98819.25
2022-11-07T14:15:56.308Z,98836.00
2022-11-07T14:18:26.660Z,98817.50
2022-11-07T14:20:55.354Z,98838.03
2022-11-07T14:23:23.794Z,98830.97
2022-11-07T14:26:00.197Z,98834.72
2022-11-07T14:28:33.602Z,98838.53
2022-11-07T14:31:00.938Z,98840.13
2022-11-07T14:33:27.817Z,98833.50
2022-11-07T14:35:54.367Z,98842.75
2022-11-07T14:38:22.919Z,98846.94
2022-11-07T14:40:50.080Z,98843.78
2022-11-07T14:43:20.534Z,98844.03
2022-11-07T14:46:11.452Z,98845.50
2022-11-07T14:48:36.311Z,98838.13
2022-11-07T14:51:03.646Z,98839.97
2022-11-07T14:53:33.726Z,98843.03
2022-11-07T14:56:06.575Z,98850.31
2022-11-07T14:58:35.122Z,98844.88
2022-11-07T15:01:12.244Z,98849.53
2022-11-07T15:03:51.600Z,98851.47
2022-11-07T15:06:23.295Z,98843.66
2022-11-07T15:08:57.082Z,98854.91
2022-11-07T15:11:27.539Z,98840.91
2022-11-07T15:13:56.755Z,98848.66
2022-11-07T15:16:23.741Z,98840.81
2022-11-07T15:18:58.074Z,98848.66
2022-11-07T15:21:29.358Z,98844.66
2022-11-07T15:23:56.165Z,98853.19
2022-11-07T15:26:24.793Z,98865.25
2022-11-07T15:28:52.510Z,98860.50
2022-11-07T15:31:22.972Z,98867.44
2022-11-07T15:33:50.222Z,98867.31
2022-11-07T15:36:17.042Z,98869.97
2022-11-07T15:38:43.664Z,98871.78
2022-11-07T15:41:10.411Z,98871.25
2022-11-07T15:43:36.948Z,98868.50
2022-11-07T15:46:24.275Z,98874.44
2022-11-07T15:48:50.831Z,98873.84
2022-11-07T15:51:17.391Z,98872.25
2022-11-07T15:53:44.050Z,98873.50
2022-11-07T15:56:15.235Z,98875.09
2022-11-07T15:58:42.138Z,98878.84
2022-11-07T16:01:09.047Z,98871.13
2022-11-07T16:03:37.195Z,98885.22
2022-11-07T16:06:15.189Z,98873.06
2022-11-07T16:08:41.957Z,98867.81
2022-11-07T16:11:10.165Z,98872.34
2022-11-07T16:13:36.654Z,98867.25
2022-11-07T16:16:04.379Z,98868.38
2022-11-07T16:18:37.701Z,98871.69
2022-11-07T16:21:06.197Z,98869.19
2022-11-07T16:23:32.810Z,98878.84
2022-11-07T16:25:59.532Z,98880.56
2022-11-07T16:28:29.991Z,98874.88
2022-11-07T16:30:57.372Z,98884.31
2022-11-07T16:33:24.805Z,98878.06
2022-11-07T16:35:55.234Z,98863.28
2022-11-07T16:38:24.486Z,98880.09
2022-11-07T16:40:51.350Z,98869.19
2022-11-07T16:43:18.234Z,98876.94
2022-11-07T16:45:46.972Z,98866.25
2022-11-07T16:48:19.232Z,98878.31
2022-11-07T16:50:45.822Z,98871.13
2022-11-07T16:53:12.739Z,98870.00
2022-11-07T16:55:43.713Z,98879.44
2022-11-07T16:58:21.919Z,98876.00
2022-11-07T17:00:48.448Z,98873.28
2022-11-07T17:03:15.239Z,98870.56
2022-11-07T17:05:42.143Z,98869.31
2022-11-07T17:08:16.096Z,98865.47
2022-11-07T17:10:44.350Z,98875.91
2022-11-07T17:13:10.875Z,98872.38
2022-11-07T17:15:37.531Z,98873.97
2022-11-07T17:18:08.156Z,98882.72
2022-11-07T17:20:50.492Z,98881.25
2022-11-07T17:23:17.777Z,98871.38
2022-11-07T17:25:49.366Z,98876.59
2022-11-07T17:28:16.282Z,98878.50
2022-11-07T17:30:43.079Z,98881.56
2022-11-07T17:33:09.907Z,98880.78
2022-11-07T17:35:37.320Z,98888.63
2022-11-07T17:38:03.901Z,98886.59
2022-11-07T17:40:32.696Z,98883.75
2022-11-07T17:43:00.914Z,98887.03
2022-11-07T17:45:27.798Z,98883.28
2022-11-07T17:47:54.293Z,98885.91
2022-11-07T17:50:21.806Z,98875.78
2022-11-07T17:52:48.678Z,98890.22
2022-11-07T17:55:15.475Z,98893.88
2022-11-07T17:57:42.025Z,98892.59
2022-11-07T18:00:17.555Z,98883.75
2022-11-07T18:02:44.547Z,98885.22
2022-11-07T18:05:13.904Z,98891.47
2022-11-07T18:07:40.472Z,98887.50
2022-11-07T18:10:07.945Z,98893.41
2022-11-07T18:12:34.539Z,98898.53
2022-11-07T18:15:01.096Z,98898.41
2022-11-07T18:17:28.944Z,98901.13
2022-11-07T18:19:55.485Z,98904.44
2022-11-07T18:22:22.025Z,98898.72
2022-11-07T18:24:48.555Z,98911.47
2022-11-07T18:27:15.099Z,98898.31
2022-11-07T18:29:41.804Z,98899.06
2022-11-07T18:32:08.400Z,98899.44
2022-11-07T18:34:36.450Z,98898.19
2022-11-07T18:37:03.154Z,98910.69
2022-11-07T18:39:29.708Z,98899.97
2022-11-07T18:41:56.230Z,98901.81
2022-11-07T18:44:22.763Z,98901.56
2022-11-07T18:46:49.445Z,98897.25
2022-11-07T18:49:15.987Z,98893.06
2022-11-07T18:51:43.996Z,98891.78
2022-11-07T18:54:11.541Z,98900.69
2022-11-07T18:56:39.272Z,98905.66
2022-11-07T18:59:05.806Z,98899.97
2022-11-07T19:01:32.894Z,98901.81
2022-11-07T19:04:01.315Z,98910.31
2022-11-07T19:06:30.018Z,98916.69
2022-11-07T19:08:58.746Z,98917.25
2022-11-07T19:11:27.973Z,98915.66
2022-11-07T19:13:55.459Z,98916.69
2022-11-07T19:16:23.030Z,98917.84
2022-11-07T19:18:50.675Z,98920.44
2022-11-07T19:21:19.565Z,98922.47
2022-11-07T19:23:47.227Z,98913.94
2022-11-07T19:26:16.166Z,98914.28
2022-11-07T19:28:42.682Z,98914.72
2022-11-07T19:31:11.533Z,98925.75
2022-11-07T19:33:38.376Z,98915.97
2022-11-07T19:36:07.082Z,98928.69
2022-11-07T19:38:33.906Z,98916.88
2022-11-07T19:41:02.621Z,98910.97
2022-11-07T19:43:30.573Z,98903.91
2022-11-07T19:45:57.370Z,98893.47
2022-11-07T19:48:23.968Z,98897.00
2022-11-07T19:50:50.674Z,98899.06
2022-11-07T19:53:17.433Z,98893.38
2022-11-07T19:55:44.254Z,98901.22
2022-11-07T19:58:10.921Z,98897.47
2022-11-07T20:00:38.881Z,98904.50
2022-11-07T20:03:05.530Z,98901.91
2022-11-07T20:05:32.176Z,98900.53
2022-11-07T20:08:03.739Z,98906.53
2022-11-07T20:10:31.662Z,98900.84
2022-11-07T20:12:58.206Z,98917.13
2022-11-07T20:15:24.792Z,98918.72
2022-11-07T20:17:52.654Z,98910.53
2022-11-07T20:20:19.327Z,98917.53
2022-11-07T20:22:46.658Z,98917.06
2022-11-07T20:25:13.795Z,98916.63
2022-11-07T20:27:40.808Z,98922.50
2022-11-07T20:30:08.737Z,98920.91
2022-11-07T20:32:35.272Z,98922.72
2022-11-07T20:35:03.501Z,98926.22
2022-11-07T20:37:30.027Z,98923.66
2022-11-07T20:39:56.541Z,98926.28
2022-11-07T20:42:23.158Z,98923.91
2022-11-07T20:44:49.936Z,98926.06
2022-11-07T20:47:16.528Z,98925.84
2022-11-07T20:49:43.278Z,98929.47
2022-11-07T20:52:11.168Z,98930.59
2022-11-07T20:54:38.070Z,98937.53
2022-11-07T20:57:04.921Z,98933.56
2022-11-07T20:59:31.870Z,98934.25
2022-11-07T21:02:03.242Z,98938.25
2022-11-07T21:04:36.194Z,98933.94
2022-11-07T21:07:12.244Z,98933.69
2022-11-07T21:09:38.798Z,98945.63
2022-11-07T21:12:05.580Z,98940.88
2022-11-07T21:14:32.106Z,98937.69
2022-11-07T21:16:58.784Z,98946.66
2022-11-07T21:19:25.354Z,98952.81
2022-11-07T21:21:51.884Z,98954.97
2022-11-07T21:24:19.959Z,98954.06
2022-11-07T21:26:46.815Z,98943.84
2022-11-07T21:29:13.363Z,98940.09
2022-11-07T21:31:40.399Z,98948.16
2022-11-07T21:34:08.685Z,98947.25
2022-11-07T21:36:35.343Z,98937.81
2022-11-07T21:39:02.134Z,98944.19
2022-11-07T21:41:31.719Z,98943.50
2022-11-07T21:43:58.312Z,98931.00
2022-11-07T21:46:26.507Z,98929.41
2022-11-07T21:48:55.142Z,98934.06
2022-11-07T21:51:23.041Z,98924.94
2022-11-07T21:53:50.443Z,98918.81
2022-11-07T21:56:20.079Z,98920.16
2022-11-07T21:58:48.045Z,98914.47
2022-11-07T22:01:14.651Z,98919.00
2022-11-07T22:04:05.144Z,98915.47
2022-11-07T22:06:28.412Z,98918.44
2022-11-07T22:08:55.033Z,98921.19
2022-11-07T22:11:21.540Z,98915.97
2022-11-07T22:13:49.417Z,98912.22
2022-11-07T22:16:18.380Z,98918.38
2022-11-07T22:18:45.940Z,98923.50
2022-11-07T22:21:14.550Z,98917.13
2022-11-07T22:23:41.364Z,98913.63
2022-11-07T22:26:11.667Z,98907.38
2022-11-07T22:28:42.878Z,98921.78
2022-11-07T22:31:15.471Z,98912.03
2022-11-07T22:33:42.024Z,98912.34
2022-11-07T22:36:10.542Z,98917.00
2022-11-07T22:38:37.970Z,98909.50
2022-11-07T22:41:06.198Z,98917.25
2022-11-07T22:43:33.062Z,98907.00
2022-11-07T22:46:01.714Z,98907.22
2022-11-07T22:48:30.144Z,98915.84
2022-11-07T22:51:01.849Z,98924.25
2022-11-07T22:53:28.828Z,98922.31
2022-11-07T22:55:55.509Z,98911.44
2022-11-07T22:58:22.079Z,98909.84
2022-11-07T23:00:48.643Z,98907.22
2022-11-07T23:03:15.406Z,98913.47
2022-11-07T23:05:43.359Z,98909.94
2022-11-07T23:08:10.251Z,98908.94
2022-11-07T23:10:36.793Z,98898.50
2022-11-07T23:13:03.338Z,98896.22
2022-11-07T23:15:30.910Z,98895.53
2022-11-07T23:17:57.959Z,98896.22
2022-11-07T23:20:24.578Z,98901.44
2022-11-07T23:22:52.494Z,98900.78
2022-11-07T23:25:19.019Z,98898.25
2022-11-07T23:27:45.512Z,98906.13
2022-11-07T23:30:12.718Z,98899.41
2022-11-07T23:32:39.260Z,98901.59
2022-11-07T23:35:06.962Z,98898.06
2022-11-07T23:37:33.460Z,98892.59
2022-11-07T23:40:01.326Z,98892.47
2022-11-07T23:42:27.988Z,98889.19
2022-11-07T23:44:54.511Z,98880.75
2022-11-07T23:47:21.013Z,98880.75
2022-11-07T23:49:47.507Z,98867.56
2022-11-07T23:52:14.752Z,98870.84
2022-11-07T23:54:41.416Z,98874.09
2022-11-07T23:57:09.412Z,98878.31
2022-11-07T23:59:36.474Z,98874.44
